Airfield :
LOGIN :

Register | Disclaimer

   EN    FR    IT 

 










Legend :    VFR   Marginal VFR   IFR   Intensive IFR   Very Intensive IFR
Visi :
Ceiling :
>= 8 km
>= 3000ft
5 to 8 km
1000 to 3000 ft
1500m to 5 km
500 to 1000 ft
800 to 1500m
200 to 500 ft
< 800m
< 200 ft
Symbols :   Thunderstorms  Fog  Heavy snow  Heavy precipitations  Wind > 20 kt
SIGMETs :     Misc.  Thunderstorms  Icing  Turbulence  Mountain Waves  Volcanic Ashes







- Airport Elevation : 296 ft
- IATA code : GKE


ETNG - Geilenkirchen

CURRENT METAR :
  • 190450Z 02003KT 7000 BKN009 BKN050 02/01 Q1021

EXPIRED METARs :
  • 190350Z 05004KT 7000 BKN011 BKN050 01/00 Q1022
  • 190250Z 05006KT 8000 00/M01 Q1022

TAF COR TAF ETNG
Valid from the 19 at 06:00 until the 19 at 21:00 UTC


190500Z 1906/1921 05007KT 7000 BKN010
BECMG 1906/1909 9999 SCT018 06015G25KT
PROB40
TEMPO 1906/1921 4500 -RASN BKN007
TEMPO 1909/1915 06018G32KT
No reported NOTAMs for that airfield.
1 SIGMET reported for the Langen FIR (EDGG) :
 
Severe icing
EDGG SIGMET 1 VALID 190330/190600 EDZF
EDGG LANGEN FIR SEV ICE FCST WI N5121 E01030 - N5041 E01042 - N5015 E01018 - N5015 E00845 - N5120 E00848 - N5121 E01030 1500FT/5000FT MOV W 05KT NC=



MET'MAP, your aeronautical weather chart ! - Copyright ORBIFLY December 2007 - Disclaimer

ORBIFLY MET'MAP TEAM :

Programming & Development : Alexandra Zaïnal
Concept & Development : Baudouin d'Aumeries
Co-Development & Prog : Marc-Olivier Méhu
Technical & hardware support : Manuel Goepfert

Contact : metmap@orbifly.com




SOURCES & CREDITS :

   NOAA